Crystal Beach, Texas
Current Conditions -  °F | °C
As of 7:52 AM on Saturday 25 Oct 2014 (Local Time) from KGLS Reporting Station
Clear Clear  
Wind Chill: 65°   Ceiling: Unl
Heat Index: 65°   Visibility: 10mi
Dew Point: 58°   Wind: 7mph
Humidity: 78%   Direction: 30°NNE
Pressure: 30.15"   Gusts: NA
Location:  29.4387°N, 94.6622°W
Report Text: KGLS 251252Z 03006KT 10SM CLR 18/14 A3015 RMK AO2 SLP210 T01830144
Loading
Personal Weather Stations






























Interactive Weather Map
Tropical Storm Tracking
New forecast layout! Learn more

10-Day Weather Forecast

Advertisements
Track Severe Weather on mobile